Time;durP1;ratioP1;P1;durP2;ratioP2;P2;SDS_P1;SDS_P2;PMS_P1;PMS_P2;Temp;Humidity;BMP_temperature;BMP_pressure;BME280_temperature;BME280_humidity;BME280_pressure;Samples;Min_cycle;Max_cycle;Signal;HPM_P1;HPM_P2
2023/12/22 00:00:11;;;;;;;;;4.00;2.00;;;;;12.64;65.27;100972.97;5049019;28;45419;-77
2023/12/22 00:02:36;;;;;;;;;3.00;3.00;;;;;13.00;65.21;101038.66;5060574;28;47127;-77
2023/12/22 00:05:02;;;;;;;;;2.67;2.67;;;;;12.78;65.03;100996.44;5059541;28;45342;-76
2023/12/22 00:07:28;;;;;;;;;2.33;2.33;;;;;12.76;65.35;101003.75;5068780;28;45202;-76
2023/12/22 00:09:53;;;;;;;;;2.00;2.00;;;;;12.89;65.25;101030.91;5067669;28;45104;-74
2023/12/22 00:12:18;;;;;;;;;4.00;2.33;;;;;13.02;64.95;101042.06;5065879;28;45221;-78
2023/12/22 00:14:44;;;;;;;;;2.33;2.33;;;;;12.21;64.46;100901.69;5066208;28;45123;-75
2023/12/22 00:17:09;;;;;;;;;4.00;4.00;;;;;12.98;64.44;101021.97;5065862;28;45154;-76
2023/12/22 00:19:35;;;;;;;;;3.67;2.33;;;;;12.65;63.94;100974.66;5072552;28;45284;-78
2023/12/22 00:22:00;;;;;;;;;1.67;1.67;;;;;12.77;63.75;100984.09;5068548;28;46331;-77
2023/12/22 00:24:25;;;;;;;;;3.33;2.33;;;;;13.05;63.61;101023.06;5063368;28;45149;-78
2023/12/22 00:26:51;;;;;;;;;6.67;2.67;;;;;12.93;63.19;101000.25;5058085;28;44956;-77
2023/12/22 00:29:16;;;;;;;;;2.33;1.67;;;;;12.95;63.39;101019.63;5062954;28;45235;-79
2023/12/22 00:31:42;;;;;;;;;2.00;2.00;;;;;12.76;62.81;100988.59;5062115;28;45647;-75
2023/12/22 00:34:07;;;;;;;;;2.25;1.25;;;;;12.73;62.76;100998.72;5055999;28;45166;-77
2023/12/22 00:36:32;;;;;;;;;3.00;2.00;;;;;12.62;62.42;100974.97;5065178;28;45198;-75
2023/12/22 00:38:58;;;;;;;;;2.67;1.33;;;;;12.80;62.82;101007.78;5068052;28;44982;-76
2023/12/22 00:41:24;;;;;;;;;4.00;2.00;;;;;12.45;62.74;100953.44;5059814;28;46113;-76
2023/12/22 00:43:49;;;;;;;;;10.00;3.67;;;;;12.64;62.67;100999.66;5060001;28;45022;-75
2023/12/22 00:46:14;;;;;;;;;2.00;2.00;;;;;12.63;62.30;100987.31;5069107;28;45029;-74
2023/12/22 00:48:40;;;;;;;;;2.67;1.67;;;;;12.49;62.69;100957.47;5060121;28;45161;-76
2023/12/22 00:51:08;;;;;;;;;2.33;2.33;;;;;12.52;61.95;100968.84;5067981;28;45167;-74
2023/12/22 00:53:33;;;;;;;;;4.67;2.00;;;;;12.58;62.51;100990.41;5056327;28;45222;-77
2023/12/22 00:56:00;;;;;;;;;4.33;3.00;;;;;12.52;62.43;101001.69;5062016;28;45191;-76
2023/12/22 00:58:29;;;;;;;;;3.67;2.33;;;;;12.34;61.88;100974.97;5064587;28;45159;-76
2023/12/22 01:00:55;;;;;;;;;5.67;4.33;;;;;11.91;62.15;100905.53;5068533;28;47277;-76
2023/12/22 01:03:20;;;;;;;;;4.33;3.00;;;;;12.54;62.12;101021.03;5063430;28;45070;-74
2023/12/22 01:05:45;;;;;;;;;3.00;3.00;;;;;12.48;62.44;101017.16;5064049;28;45249;-74
2023/12/22 01:08:11;;;;;;;;;2.00;1.67;;;;;12.48;62.11;101010.97;5053336;28;45309;-74
2023/12/22 01:10:36;;;;;;;;;6.67;1.67;;;;;12.40;62.22;100998.38;5059491;28;45544;-75
2023/12/22 01:13:01;;;;;;;;;5.00;1.67;;;;;12.56;62.30;101020.88;5061789;28;45120;-76
2023/12/22 01:15:27;;;;;;;;;4.00;1.67;;;;;12.48;62.22;101001.16;5056266;28;45203;-75
2023/12/22 01:17:52;;;;;;;;;6.67;3.33;;;;;12.52;62.32;101033.69;5066839;28;45285;-76
2023/12/22 01:20:18;;;;;;;;;2.67;2.67;;;;;12.52;62.62;101043.50;5060090;28;45267;-75
2023/12/22 01:22:44;;;;;;;;;2.00;1.00;;;;;12.37;62.56;101009.34;5058569;28;45184;-76
2023/12/22 01:25:09;;;;;;;;;4.00;4.00;;;;;12.48;62.36;101022.47;5048039;28;45036;-73
2023/12/22 01:27:34;;;;;;;;;5.33;4.00;;;;;12.32;63.31;100995.63;5046088;28;45607;-76
2023/12/22 01:30:00;;;;;;;;;2.00;2.00;;;;;12.47;62.93;101031.47;5041190;28;45532;-77
2023/12/22 01:32:25;;;;;;;;;3.00;3.00;;;;;12.48;63.00;101027.81;5062842;28;44976;-74
2023/12/22 01:34:50;;;;;;;;;3.67;3.00;;;;;12.43;63.08;101019.44;5061671;28;45050;-76
2023/12/22 01:37:16;;;;;;;;;3.00;2.33;;;;;12.33;63.30;100999.97;5061679;28;46024;-77
2023/12/22 01:39:41;;;;;;;;;6.33;2.33;;;;;12.25;63.71;100993.72;5046759;28;45446;-74
2023/12/22 01:42:06;;;;;;;;;5.33;2.33;;;;;12.11;64.31;100981.72;5045698;28;45289;-74
2023/12/22 01:44:32;;;;;;;;;2.00;1.00;;;;;12.36;64.81;101029.00;5043534;28;45692;-75
2023/12/22 01:46:58;;;;;;;;;5.67;2.00;;;;;12.30;65.39;100996.75;5049758;28;45489;-74
2023/12/22 01:49:25;;;;;;;;;5.33;3.33;;;;;11.60;65.36;100876.47;5044556;28;46189;-76
2023/12/22 01:51:52;;;;;;;;;3.00;0.67;;;;;12.49;65.84;101013.50;5046454;28;45525;-76
2023/12/22 01:54:18;;;;;;;;;4.33;1.67;;;;;12.48;66.09;101011.81;5061157;28;45307;-75
2023/12/22 01:56:45;;;;;;;;;3.33;2.67;;;;;12.37;66.23;100993.34;5056081;28;44942;-76
2023/12/22 01:59:11;;;;;;;;;3.67;2.00;;;;;12.43;66.86;101008.75;5065082;28;45982;-76
2023/12/22 02:01:38;;;;;;;;;7.00;2.67;;;;;12.42;66.79;101022.25;5062995;28;45157;-78
2023/12/22 02:04:05;;;;;;;;;1.25;1.25;;;;;12.41;67.21;101023.19;5052013;28;45462;-78
2023/12/22 02:06:31;;;;;;;;;3.67;1.33;;;;;12.23;67.34;101001.84;5053196;28;45495;-77
2023/12/22 02:08:58;;;;;;;;;1.00;1.00;;;;;12.45;67.68;101036.13;5054137;28;46170;-76
2023/12/22 02:11:23;;;;;;;;;4.00;3.00;;;;;12.30;67.70;101026.09;5064521;28;45116;-78
2023/12/22 02:13:49;;;;;;;;;2.33;1.67;;;;;12.48;67.69;101064.31;5054017;28;45799;-77
2023/12/22 02:16:24;;;;;;;;;3.00;2.00;;;;;12.41;67.98;101042.75;5061738;28;45127;-76
2023/12/22 02:18:55;;;;;;;;;1.00;1.00;;;;;12.45;67.42;101059.28;5065764;28;46124;-78
2023/12/22 02:21:20;;;;;;;;;1.00;1.00;;;;;12.36;67.59;101037.00;5060560;28;45147;-76
2023/12/22 02:23:47;;;;;;;;;4.00;1.67;;;;;12.23;67.53;101019.69;5061700;28;45012;-74
2023/12/22 02:26:44;;;;;;;;;2.00;2.00;;;;;12.44;67.88;101057.59;5056562;28;45063;-75
2023/12/22 02:29:15;;;;;;;;;2.33;1.00;;;;;12.35;67.82;101053.97;5062012;28;46307;-75
2023/12/22 02:31:44;;;;;;;;;4.00;1.67;;;;;12.44;67.59;101063.78;5062192;28;45040;-75
2023/12/22 02:34:14;;;;;;;;;2.00;2.00;;;;;12.52;67.35;101078.19;5058061;28;45404;-76
2023/12/22 02:36:41;;;;;;;;;7.67;3.00;;;;;12.54;67.22;101069.03;5065183;28;45252;-75
2023/12/22 02:39:08;;;;;;;;;5.00;2.00;;;;;12.40;66.71;101057.03;5062625;28;45931;-76
2023/12/22 02:41:35;;;;;;;;;2.00;2.00;;;;;12.40;67.21;101050.84;5068993;28;45240;-77
2023/12/22 02:44:01;;;;;;;;;5.00;1.67;;;;;12.33;66.93;101034.63;5066432;28;45126;-75
2023/12/22 02:46:26;;;;;;;;;5.00;2.00;;;;;12.37;66.86;101046.66;5053367;28;45460;-74
2023/12/22 02:48:52;;;;;;;;;5.00;2.75;;;;;12.46;67.36;101067.13;5043872;28;46679;-75
2023/12/22 02:51:17;;;;;;;;;3.33;1.33;;;;;12.46;66.63;101075.13;5037488;28;45555;-75
2023/12/22 02:53:42;;;;;;;;;2.00;1.00;;;;;12.05;67.05;100998.31;5055797;28;45014;-73
2023/12/22 02:56:08;;;;;;;;;3.00;2.00;;;;;12.48;67.00;101066.97;5057242;28;47066;-73
2023/12/22 02:58:33;;;;;;;;;5.00;2.67;;;;;12.55;66.93;101080.53;5060089;28;45625;-75
2023/12/22 03:00:58;;;;;;;;;2.33;2.00;;;;;12.41;67.31;101044.53;5059629;28;45106;-79
2023/12/22 03:03:24;;;;;;;;;1.00;1.00;;;;;12.61;67.09;101063.94;5064929;28;45250;-76
2023/12/22 03:05:49;;;;;;;;;4.67;2.00;;;;;12.62;66.65;101060.31;5043306;28;45610;-74
2023/12/22 03:08:14;;;;;;;;;3.00;1.00;;;;;12.48;66.60;101033.16;5045909;28;50509;-75
2023/12/22 03:10:40;;;;;;;;;3.33;3.00;;;;;12.66;66.70;101051.00;5037513;28;45637;-73
2023/12/22 03:13:05;;;;;;;;;3.00;3.00;;;;;12.67;66.19;101050.03;5044632;28;45507;-75
2023/12/22 03:15:30;;;;;;;;;0.75;0.75;;;;;12.68;66.36;101049.03;5057045;28;45500;-75
2023/12/22 03:17:56;;;;;;;;;1.25;1.25;;;;;12.70;65.90;101044.38;5064501;28;47211;-75
2023/12/22 03:20:21;;;;;;;;;2.75;1.75;;;;;12.36;65.43;100978.34;5054929;28;45013;-73
2023/12/22 03:22:46;;;;;;;;;2.00;2.00;;;;;12.62;65.36;101031.81;5054026;28;45209;-75
2023/12/22 03:25:12;;;;;;;;;3.00;1.25;;;;;12.65;65.29;101030.66;5063251;28;45224;-73
2023/12/22 03:27:38;;;;;;;;;3.00;1.50;;;;;12.75;65.10;101044.75;5050534;28;45676;-75
2023/12/22 03:30:03;;;;;;;;;2.75;2.00;;;;;12.75;65.15;101040.25;5059106;28;45007;-77
2023/12/22 03:32:29;;;;;;;;;2.00;1.67;;;;;12.76;65.01;101036.59;5056378;28;45226;-75
2023/12/22 03:34:54;;;;;;;;;1.50;1.50;;;;;12.85;64.85;101053.56;5057151;28;45119;-77
2023/12/22 03:37:19;;;;;;;;;5.67;2.67;;;;;12.79;64.60;101046.13;5059906;28;45511;-74
2023/12/22 03:39:45;;;;;;;;;2.67;1.67;;;;;12.86;64.61;101055.22;5059255;28;45290;-73
2023/12/22 03:42:10;;;;;;;;;1.00;1.00;;;;;12.87;64.63;101043.56;5056612;28;46306;-77
2023/12/22 03:44:35;;;;;;;;;2.67;1.67;;;;;12.87;64.63;101048.06;5059995;28;44941;-75
2023/12/22 03:47:01;;;;;;;;;2.00;2.00;;;;;12.80;64.76;101037.97;5057779;28;47010;-74
2023/12/22 03:49:26;;;;;;;;;2.67;2.67;;;;;12.77;64.42;101037.44;5056632;28;44954;-74
2023/12/22 03:51:51;;;;;;;;;2.25;1.00;;;;;12.88;64.47;101055.91;5062250;28;47611;-74
2023/12/22 03:54:17;;;;;;;;;1.67;0.67;;;;;12.83;64.63;101036.88;5057673;28;46124;-77
2023/12/22 03:56:43;;;;;;;;;1.00;1.00;;;;;12.74;64.59;101027.91;5059463;28;45609;-75
2023/12/22 03:59:08;;;;;;;;;3.00;2.25;;;;;12.90;65.00;101048.59;5057874;28;45167;-75
2023/12/22 04:01:34;;;;;;;;;2.33;2.33;;;;;12.90;64.90;101042.41;5066245;28;45096;-74
2023/12/22 04:03:59;;;;;;;;;2.00;2.00;;;;;12.88;64.70;101044.41;5062768;28;45869;-74
2023/12/22 04:06:25;;;;;;;;;1.75;1.50;;;;;12.84;65.20;101035.88;5065436;28;45964;-74
2023/12/22 04:08:50;;;;;;;;;1.75;1.75;;;;;12.61;65.34;101019.44;5064848;28;44945;-75
2023/12/22 04:11:15;;;;;;;;;2.33;1.00;;;;;12.81;65.00;101049.47;5057781;28;45122;-75
2023/12/22 04:13:41;;;;;;;;;0.67;0.67;;;;;12.87;65.55;101058.75;5070567;28;45174;-76
2023/12/22 04:16:06;;;;;;;;;2.00;1.00;;;;;12.83;65.49;101044.88;5061811;28;45573;-75
2023/12/22 04:18:32;;;;;;;;;4.00;4.00;;;;;12.83;65.41;101041.34;5061889;28;45000;-75
2023/12/22 04:20:57;;;;;;;;;1.00;0.67;;;;;12.75;65.67;101028.75;5062421;28;44986;-77
2023/12/22 04:23:22;;;;;;;;;3.00;1.67;;;;;12.87;66.35;101027.56;5065031;28;45213;-77
2023/12/22 04:25:48;;;;;;;;;2.50;1.50;;;;;12.92;66.91;101049.28;5061457;28;45245;-78
2023/12/22 04:28:14;;;;;;;;;0.25;0.25;;;;;12.93;67.91;101053.63;5062905;28;45113;-77
2023/12/22 04:30:39;;;;;;;;;1.25;0.75;;;;;12.85;68.81;101042.88;5058608;28;45342;-75
2023/12/22 04:33:04;;;;;;;;;1.33;1.00;;;;;12.70;69.46;101031.88;5064602;28;45095;-74
2023/12/22 04:35:30;;;;;;;;;3.00;1.67;;;;;12.92;70.54;101059.13;5068220;28;47606;-77
2023/12/22 04:37:55;;;;;;;;;1.67;0.67;;;;;12.68;71.12;101023.19;5061902;28;45091;-75
2023/12/22 04:40:20;;;;;;;;;1.00;0.67;;;;;12.74;71.33;101037.75;5062592;28;45163;-77
2023/12/22 04:42:46;;;;;;;;;4.67;1.00;;;;;12.65;71.75;101017.31;5062280;28;45221;-74
2023/12/22 04:45:11;;;;;;;;;3.00;0.75;;;;;12.79;72.34;101043.47;5062295;28;45255;-77
2023/12/22 04:47:37;;;;;;;;;1.67;0.00;;;;;12.82;72.58;101045.84;5056370;28;45033;-77
2023/12/22 04:50:02;;;;;;;;;0.25;0.25;;;;;12.78;72.63;101049.78;5068484;28;44886;-78
2023/12/22 04:52:28;;;;;;;;;0.50;0.50;;;;;12.56;72.64;101015.53;5060153;28;45068;-77
2023/12/22 04:54:54;;;;;;;;;4.00;1.00;;;;;12.70;72.40;101034.56;5059159;28;45717;-75
2023/12/22 04:57:19;;;;;;;;;2.75;0.25;;;;;12.54;72.66;101022.84;5060309;28;45137;-77
2023/12/22 04:59:44;;;;;;;;;1.25;0.50;;;;;12.69;72.75;101053.38;5064080;28;45294;-77
2023/12/22 05:02:10;;;;;;;;;2.67;0.67;;;;;12.45;72.22;101012.13;5056996;28;45248;-76
2023/12/22 05:04:35;;;;;;;;;1.67;0.00;;;;;12.69;72.82;101040.88;5055956;28;47306;-77
2023/12/22 05:07:01;;;;;;;;;1.00;1.00;;;;;12.57;72.50;101022.56;5065371;28;47520;-78
2023/12/22 05:09:28;;;;;;;;;3.00;1.00;;;;;12.68;72.71;101054.38;5063779;28;46168;-78
2023/12/22 05:11:53;;;;;;;;;3.00;2.00;;;;;12.68;72.83;101060.53;5043854;28;45503;-75
2023/12/22 05:14:19;;;;;;;;;3.33;2.00;;;;;12.69;72.92;101056.03;5049030;28;46116;-77
2023/12/22 05:16:44;;;;;;;;;1.00;1.00;;;;;12.73;72.92;101057.41;5061298;28;45182;-75
2023/12/22 05:19:10;;;;;;;;;1.00;0.33;;;;;12.62;72.92;101038.97;5060274;28;45096;-78
2023/12/22 05:21:35;;;;;;;;;0.33;0.00;;;;;12.56;73.15;101036.88;5055890;28;44954;-78
2023/12/22 05:24:00;;;;;;;;;0.00;0.00;;;;;12.43;73.20;101016.75;5058261;28;45433;-77
2023/12/22 05:26:29;;;;;;;;;1.00;1.00;;;;;12.72;73.89;101063.75;5058852;28;45319;-79
2023/12/22 05:28:55;;;;;;;;;2.50;0.75;;;;;12.72;73.37;101045.06;5065191;28;44997;-77
2023/12/22 05:31:21;;;;;;;;;1.75;1.00;;;;;12.59;73.78;101028.56;5055284;28;45707;-76
2023/12/22 05:33:46;;;;;;;;;1.25;0.25;;;;;12.49;73.11;101018.81;5063316;28;45210;-79
2023/12/22 05:36:11;;;;;;;;;1.25;0.00;;;;;12.76;73.35;101049.09;5066498;28;44792;-77
2023/12/22 05:38:38;;;;;;;;;0.50;0.50;;;;;12.74;72.98;101059.09;5060842;28;45051;-79
2023/12/22 05:41:04;;;;;;;;;0.25;0.25;;;;;12.71;72.87;101052.22;5059231;28;45144;-78
2023/12/22 05:43:29;;;;;;;;;0.00;0.00;;;;;12.62;72.31;101028.31;5068078;28;47303;-76
2023/12/22 05:45:55;;;;;;;;;1.00;1.00;;;;;12.67;72.42;101037.53;5063602;28;45195;-76
2023/12/22 05:48:21;;;;;;;;;0.33;0.33;;;;;12.74;72.73;101056.41;5058967;28;45919;-77
2023/12/22 05:50:47;;;;;;;;;0.00;0.00;;;;;12.47;72.62;101012.81;5051996;28;45054;-74
2023/12/22 05:53:13;;;;;;;;;1.75;0.00;;;;;12.59;72.77;101033.91;5060235;28;46261;-76
2023/12/22 05:55:39;;;;;;;;;1.33;0.00;;;;;12.67;72.57;101044.69;5052412;28;45073;-74
2023/12/22 05:58:05;;;;;;;;;0.00;0.00;;;;;12.55;72.52;101022.72;5066819;28;45902;-79
2023/12/22 06:00:30;;;;;;;;;2.00;2.00;;;;;12.70;72.82;101050.56;5058590;28;45210;-78
2023/12/22 06:02:56;;;;;;;;;0.00;0.00;;;;;12.66;72.97;101048.34;5058383;28;45708;-75
2023/12/22 06:05:22;;;;;;;;;0.33;0.33;;;;;12.70;72.98;101057.72;5046472;28;45290;-75
2023/12/22 06:07:47;;;;;;;;;0.67;0.67;;;;;12.68;73.26;101041.88;5042175;28;45553;-80
2023/12/22 06:10:12;;;;;;;;;0.00;0.00;;;;;12.40;73.20;100994.88;5063935;28;45153;-76
2023/12/22 06:12:38;;;;;;;;;0.50;0.50;;;;;12.55;73.48;101029.88;5061865;28;45906;-79
2023/12/22 06:15:04;;;;;;;;;2.75;1.00;;;;;12.71;73.54;101046.91;5064813;28;44921;-78
2023/12/22 06:17:29;;;;;;;;;1.33;0.00;;;;;12.70;73.88;101052.38;5063719;28;45272;-77
2023/12/22 06:19:54;;;;;;;;;1.50;0.00;;;;;12.71;73.44;101052.22;5061015;28;45001;-75
2023/12/22 06:22:21;;;;;;;;;0.00;0.00;;;;;12.60;73.15;101031.09;5061681;28;45053;-74
2023/12/22 06:24:46;;;;;;;;;0.00;0.00;;;;;12.72;73.93;101066.41;5060244;28;44906;-74
2023/12/22 06:27:11;;;;;;;;;0.00;0.00;;;;;12.64;73.46;101047.66;5057208;28;45471;-76
2023/12/22 06:29:38;;;;;;;;;1.67;1.67;;;;;12.67;73.89;101058.03;5058752;28;45202;-75
2023/12/22 06:32:05;;;;;;;;;0.75;0.00;;;;;12.66;73.50;101056.34;5061905;28;45979;-76
2023/12/22 06:34:31;;;;;;;;;1.00;0.25;;;;;12.45;74.07;101028.13;5057680;28;45278;-75
2023/12/22 06:36:57;;;;;;;;;3.00;1.00;;;;;12.63;73.67;101048.66;5055615;28;45182;-77
2023/12/22 06:39:22;;;;;;;;;0.00;0.00;;;;;12.73;73.80;101054.75;5063318;28;45208;-78
2023/12/22 06:41:47;;;;;;;;;0.25;0.25;;;;;12.75;73.61;101050.09;5062444;28;45850;-77
2023/12/22 06:44:13;;;;;;;;;0.50;0.50;;;;;12.67;73.77;101034.00;5059708;28;45035;-78
2023/12/22 06:46:38;;;;;;;;;0.25;0.25;;;;;12.78;73.64;101049.78;5065844;28;45220;-76
2023/12/22 06:49:04;;;;;;;;;1.75;0.25;;;;;12.80;73.71;101047.81;5058134;28;45220;-76
2023/12/22 06:51:31;;;;;;;;;0.00;0.00;;;;;12.68;73.68;101020.53;5063427;28;47177;-79
2023/12/22 06:53:57;;;;;;;;;1.25;0.50;;;;;12.82;73.84;101045.84;5054060;28;45142;-76
2023/12/22 06:56:24;;;;;;;;;0.50;0.50;;;;;12.78;73.78;101039.13;5063063;28;46052;-78
2023/12/22 06:58:51;;;;;;;;;0.00;0.00;;;;;12.80;73.26;101040.66;5058575;28;45269;-78
2023/12/22 07:01:21;;;;;;;;;0.50;0.50;;;;;12.79;73.64;101036.28;5054849;28;45681;-78
2023/12/22 07:03:49;;;;;;;;;0.25;0.25;;;;;12.76;73.14;101041.09;5055907;28;45265;-79
2023/12/22 07:06:34;;;;;;;;;1.75;1.75;;;;;12.82;73.50;101040.53;5057910;28;44991;-79
2023/12/22 07:09:09;;;;;;;;;0.00;0.00;;;;;12.71;73.08;101017.56;5053246;28;45256;-79
2023/12/22 07:11:34;;;;;;;;;1.00;1.00;;;;;12.83;73.33;101042.19;5052541;28;47138;-80
2023/12/22 07:13:59;;;;;;;;;2.00;1.00;;;;;12.85;73.65;101042.03;5062626;28;44894;-80
2023/12/22 07:16:25;;;;;;;;;2.00;0.00;;;;;12.54;74.17;100993.53;5060803;28;44917;-79
2023/12/22 07:18:50;;;;;;;;;0.50;0.50;;;;;12.84;73.79;101048.38;5056808;28;45220;-79
2023/12/22 07:21:18;;;;;;;;;1.25;1.25;;;;;12.71;74.08;101012.22;5057390;28;45497;-79
2023/12/22 07:23:44;;;;;;;;;0.50;0.50;;;;;12.75;74.42;101039.44;5040949;28;45625;-82
2023/12/22 07:26:09;;;;;;;;;3.25;0.50;;;;;12.79;73.99;101046.13;5044436;28;45146;-80
2023/12/22 07:28:35;;;;;;;;;3.00;3.00;;;;;12.84;73.82;101067.88;5041559;28;45374;-79
2023/12/22 07:31:00;;;;;;;;;1.25;0.50;;;;;12.82;74.58;101053.88;5047365;28;45723;-79
2023/12/22 07:33:25;;;;;;;;;0.00;0.00;;;;;12.40;74.52;100984.19;5038527;28;45495;-79
2023/12/22 07:35:51;;;;;;;;;0.00;0.00;;;;;12.67;74.45;101028.69;5053701;28;45311;-80
2023/12/22 07:38:16;;;;;;;;;2.25;0.75;;;;;11.57;74.48;100850.13;5044926;28;45439;-79
2023/12/22 07:40:41;;;;;;;;;1.00;1.00;;;;;12.66;74.00;101029.69;5057452;28;48238;-80
2023/12/22 07:43:08;;;;;;;;;0.00;0.00;;;;;12.04;73.73;100943.31;5064348;28;45322;-79
2023/12/22 07:45:33;;;;;;;;;4.75;0.00;;;;;12.85;73.51;101077.56;5059155;28;45033;-79
2023/12/22 07:47:59;;;;;;;;;0.00;0.00;;;;;12.43;73.13;101013.25;5065906;28;45052;-81
2023/12/22 07:50:24;;;;;;;;;0.25;0.25;;;;;12.42;73.46;101019.56;5065872;28;44959;-79
2023/12/22 07:52:50;;;;;;;;;0.00;0.00;;;;;12.63;73.92;101046.81;5058647;28;45078;-79
2023/12/22 07:55:15;;;;;;;;;1.33;0.00;;;;;12.17;74.34;100984.59;5072707;28;45079;-80
2023/12/22 07:57:41;;;;;;;;;3.33;0.67;;;;;12.84;74.71;101097.25;5068682;28;45927;-80
2023/12/22 08:00:09;;;;;;;;;0.00;0.00;;;;;12.79;74.68;101083.50;5073362;28;45227;-78
2023/12/22 08:02:34;;;;;;;;;0.67;0.67;;;;;12.77;74.46;101085.47;5063994;28;44990;-80
2023/12/22 08:04:59;;;;;;;;;2.00;2.00;;;;;12.82;74.63;101083.22;5064264;28;45177;-82
2023/12/22 08:07:25;;;;;;;;;0.67;0.67;;;;;12.71;74.58;101054.06;5054867;28;45276;-80
2023/12/22 08:09:50;;;;;;;;;3.00;0.67;;;;;12.92;74.61;101094.66;5072119;28;45324;-81
2023/12/22 08:12:15;;;;;;;;;0.50;0.50;;;;;12.73;75.27;101062.75;5066110;28;44871;-80
2023/12/22 08:14:41;;;;;;;;;1.67;0.67;;;;;12.82;75.40;101088.56;5065503;28;45047;-79
2023/12/22 08:17:06;;;;;;;;;0.67;0.67;;;;;12.57;75.38;101052.72;5057440;28;45187;-78
2023/12/22 08:19:32;;;;;;;;;2.00;1.33;;;;;12.63;75.42;101064.66;5052026;28;45732;-79
2023/12/22 08:21:57;;;;;;;;;1.33;1.33;;;;;12.57;75.73;101057.22;5050912;28;45369;-79
2023/12/22 08:24:22;;;;;;;;;4.33;2.67;;;;;12.96;75.77;101117.38;5050188;28;45442;-81
2023/12/22 08:26:51;;;;;;;;;0.67;0.00;;;;;12.83;75.57;101100.91;5069919;28;45773;-80
2023/12/22 08:29:16;;;;;;;;;0.00;0.00;;;;;12.89;75.90;101110.97;5059480;28;45181;-80
2023/12/22 08:31:43;;;;;;;;;1.67;1.67;;;;;12.92;76.25;101116.00;5068198;28;44984;-79
2023/12/22 08:34:08;;;;;;;;;0.00;0.00;;;;;12.97;75.75;101108.38;5069811;28;45000;-79
2023/12/22 08:36:34;;;;;;;;;0.33;0.33;;;;;12.54;75.81;101036.19;5062180;28;44991;-77
2023/12/22 08:38:59;;;;;;;;;0.50;0.50;;;;;12.99;75.69;101106.38;5054082;28;46197;-78
2023/12/22 08:41:26;;;;;;;;;2.33;2.33;;;;;12.76;75.04;101057.09;5051108;28;45341;-81
2023/12/22 08:43:52;;;;;;;;;0.00;0.00;;;;;13.05;75.16;101104.97;5037810;28;45687;-79
2023/12/22 08:46:18;;;;;;;;;0.00;0.00;;;;;13.09;74.95;101095.66;5049017;28;45655;-79
2023/12/22 08:48:43;;;;;;;;;0.67;0.00;;;;;12.58;74.42;101019.75;5050064;28;45346;-79
2023/12/22 08:51:09;;;;;;;;;1.00;0.67;;;;;12.60;74.34;101036.41;5052526;28;45417;-79
2023/12/22 08:53:37;;;;;;;;;0.50;0.50;;;;;12.97;74.23;101102.19;5053826;28;45348;-79
2023/12/22 08:56:03;;;;;;;;;1.00;0.33;;;;;12.77;73.74;101074.78;5056104;28;44852;-79
2023/12/22 08:58:29;;;;;;;;;0.50;0.50;;;;;12.54;73.90;101021.03;5058894;28;45540;-79
2023/12/22 09:00:54;;;;;;;;;0.00;0.00;;;;;13.15;73.44;101121.75;5048558;28;45344;-79
2023/12/22 09:03:20;;;;;;;;;1.00;1.00;;;;;12.27;73.98;100975.75;5048518;28;45460;-81
2023/12/22 09:05:46;;;;;;;;;0.25;0.25;;;;;13.01;73.76;101104.44;5051332;28;45316;-79
2023/12/22 09:08:12;;;;;;;;;3.00;0.25;;;;;12.77;73.56;101074.78;5045924;28;45353;-80
2023/12/22 09:10:37;;;;;;;;;1.50;0.50;;;;;12.93;73.88;101090.97;5044125;28;45462;-78
2023/12/22 09:13:03;;;;;;;;;0.50;0.50;;;;;13.19;73.68;101130.31;5051968;28;45411;-80
2023/12/22 09:15:28;;;;;;;;;0.67;0.67;;;;;13.11;72.86;101112.34;5049118;28;45495;-80
2023/12/22 09:17:55;;;;;;;;;0.75;0.75;;;;;13.21;72.97;101133.66;5055625;28;45797;-79
2023/12/22 09:20:21;;;;;;;;;0.00;0.00;;;;;12.20;72.63;100962.16;5055850;28;45353;-79
2023/12/22 09:22:47;;;;;;;;;0.50;0.50;;;;;13.13;71.87;101069.50;5044116;28;45470;-79
2023/12/22 09:25:12;;;;;;;;;2.33;0.33;;;;;13.36;70.63;101105.44;5037209;28;45141;-79
2023/12/22 09:27:38;;;;;;;;;2.00;0.00;;;;;13.40;70.42;101090.78;5054064;28;46337;-78
2023/12/22 09:30:06;;;;;;;;;0.75;0.75;;;;;12.95;68.99;101019.63;5052425;28;45457;-79
2023/12/22 09:32:32;;;;;;;;;0.75;0.00;;;;;13.56;69.28;101108.78;5044168;28;45390;-78
2023/12/22 09:34:59;;;;;;;;;0.50;0.50;;;;;13.24;69.27;101058.63;5045506;28;45617;-78
2023/12/22 09:37:24;;;;;;;;;3.00;0.75;;;;;13.50;68.86;101115.59;5052717;28;45358;-78
2023/12/22 09:39:49;;;;;;;;;2.33;2.00;;;;;13.69;69.45;101158.19;5044282;28;45502;-78
2023/12/22 09:42:16;;;;;;;;;2.25;1.25;;;;;13.55;69.55;101123.16;5048609;28;45319;-79
2023/12/22 09:44:42;;;;;;;;;0.00;0.00;;;;;13.46;69.82;101119.56;5044509;28;45691;-79
2023/12/22 09:47:10;;;;;;;;;1.00;0.00;;;;;13.31;70.61;101091.72;5044340;28;46120;-78
2023/12/22 09:49:36;;;;;;;;;0.00;0.00;;;;;13.20;70.54;101076.75;5045091;28;45356;-79
2023/12/22 09:52:03;;;;;;;;;0.00;0.00;;;;;13.27;70.75;101095.69;5052541;28;45646;-79
2023/12/22 09:54:30;;;;;;;;;0.75;0.75;;;;;13.59;70.90;101153.91;5045712;28;45426;-78
2023/12/22 09:56:57;;;;;;;;;2.00;0.75;;;;;13.60;70.78;101151.06;5042079;28;46006;-79
2023/12/22 09:59:24;;;;;;;;;1.25;1.25;;;;;13.60;70.47;101153.75;5048071;28;45499;-78
2023/12/22 10:01:51;;;;;;;;;0.75;0.75;;;;;13.39;70.20;101113.16;5044113;28;45275;-81
2023/12/22 10:04:16;;;;;;;;;2.00;2.00;;;;;13.65;69.98;101146.13;5039093;28;45531;-79
2023/12/22 10:06:45;;;;;;;;;3.00;1.50;;;;;13.66;69.79;101141.63;5024580;28;46718;-80
2023/12/22 10:09:14;;;;;;;;;0.00;0.00;;;;;13.62;69.82;101140.25;5039819;28;45607;-78
2023/12/22 10:11:43;;;;;;;;;0.25;0.25;;;;;13.62;69.31;101138.44;5050597;28;45580;-81
2023/12/22 10:14:10;;;;;;;;;0.50;0.00;;;;;13.68;68.98;101150.31;5069611;28;45024;-79
2023/12/22 10:16:36;;;;;;;;;0.00;0.00;;;;;12.82;68.73;101011.16;5062288;28;46190;-80
2023/12/22 10:19:03;;;;;;;;;0.00;0.00;;;;;13.65;69.10;101148.78;5046156;28;45536;-81
2023/12/22 10:21:30;;;;;;;;;0.00;0.00;;;;;13.64;68.89;101144.44;5063916;28;45417;-79
2023/12/22 10:23:56;;;;;;;;;0.75;0.75;;;;;13.15;68.75;101081.69;5080106;27;45045;-80
2023/12/22 10:26:22;;;;;;;;;1.00;1.00;;;;;13.40;68.61;101101.47;5069698;28;46164;-81
2023/12/22 10:28:51;;;;;;;;;0.00;0.00;;;;;13.73;68.08;101149.84;5069468;28;44905;-79
2023/12/22 10:31:17;;;;;;;;;0.75;0.75;;;;;13.28;68.14;101076.84;5045792;28;45578;-79
2023/12/22 10:33:44;;;;;;;;;0.00;0.00;;;;;13.78;68.27;101144.88;5044885;28;45639;-79
2023/12/22 10:36:10;;;;;;;;;1.00;0.00;;;;;13.85;68.07;101145.94;5042640;28;45471;-78
2023/12/22 10:38:35;;;;;;;;;0.50;0.00;;;;;12.89;67.98;100977.53;5062575;28;45316;-76
2023/12/22 10:41:05;;;;;;;;;1.00;1.00;;;;;13.38;67.51;101050.06;5062170;28;45007;-78
2023/12/22 10:43:36;;;;;;;;;1.00;0.00;;;;;13.49;67.50;101087.22;5049150;28;45278;-78
2023/12/22 10:46:02;;;;;;;;;6.50;5.00;;;;;13.90;67.64;101159.69;5043439;28;45713;-79
2023/12/22 10:48:28;;;;;;;;;0.50;0.50;;;;;13.90;68.59;101160.50;5042579;28;45365;-76
2023/12/22 10:50:54;;;;;;;;;6.25;1.00;;;;;13.70;69.07;101122.44;5045269;28;45552;-79
2023/12/22 10:53:21;;;;;;;;;1.00;0.50;;;;;13.78;69.50;101128.84;5043190;28;45282;-79
2023/12/22 10:55:50;;;;;;;;;0.50;0.50;;;;;13.82;70.07;101130.22;5043683;28;45504;-79
2023/12/22 10:58:17;;;;;;;;;2.25;1.25;;;;;13.94;70.38;101143.16;5046546;28;45622;-80
2023/12/22 11:00:46;;;;;;;;;2.25;1.00;;;;;13.75;69.81;101113.97;5054423;28;45351;-79
2023/12/22 11:03:18;;;;;;;;;1.00;1.00;;;;;13.85;70.58;101130.75;5056904;28;44778;-79
2023/12/22 11:05:46;;;;;;;;;10.33;6.00;;;;;13.46;70.78;101082.19;5058725;28;45517;-81
2023/12/22 11:08:15;;;;;;;;;1.50;1.50;;;;;13.77;71.19;101143.19;5060266;28;45302;-79
2023/12/22 11:10:45;;;;;;;;;0.75;0.75;;;;;13.04;71.34;101029.38;5055291;28;46545;-80
2023/12/22 11:13:12;;;;;;;;;2.25;1.00;;;;;12.77;71.19;100979.59;5053078;28;45362;-78
2023/12/22 11:15:39;;;;;;;;;1.50;0.00;;;;;13.60;71.23;101108.31;5049391;28;45557;-78
2023/12/22 11:18:06;;;;;;;;;6.75;2.25;;;;;13.66;71.75;101123.75;5058744;28;45495;-81